createdAt,value
2019-04-07T00:01:42.174Z,87
2019-04-07T00:07:13.802Z,85
2019-04-07T00:12:45.188Z,85
2019-04-07T00:18:16.081Z,85
2019-04-07T00:23:47.833Z,87
2019-04-07T00:29:19.538Z,88
2019-04-07T00:34:50.148Z,86
2019-04-07T00:40:22.286Z,87
2019-04-07T00:45:53.220Z,91
2019-04-07T00:51:24.028Z,90
2019-04-07T00:56:55.628Z,87
2019-04-07T01:02:26.621Z,89
2019-04-07T01:07:58.394Z,93
2019-04-07T01:13:29.819Z,96
2019-04-07T01:19:00.444Z,97
2019-04-07T01:24:31.745Z,95
2019-04-07T01:30:03.079Z,95
2019-04-07T01:35:44.781Z,96
2019-04-07T01:41:06.187Z,91
2019-04-07T01:46:37.062Z,91
2019-04-07T01:52:08.344Z,92
2019-04-07T01:57:39.897Z,91
2019-04-07T02:03:10.921Z,92
2019-04-07T02:08:42.795Z,92
2019-04-07T02:14:13.743Z,93
2019-04-07T02:19:44.908Z,94
2019-04-07T02:25:16.179Z,91
2019-04-07T02:30:48.039Z,90
2019-04-07T02:36:25.606Z,95
2019-04-07T02:41:50.307Z,98
2019-04-07T02:47:22.516Z,97
2019-04-07T02:52:52.983Z,93
2019-04-07T02:58:25.285Z,96
2019-04-07T03:03:55.630Z,93
2019-04-07T03:09:28.085Z,93
2019-04-07T03:14:58.513Z,94
2019-04-07T03:20:29.693Z,93
2019-04-07T03:26:01.033Z,94
2019-04-07T03:31:32.850Z,93
2019-04-07T03:37:21.118Z,93
2019-04-07T03:42:35.801Z,92
2019-04-07T03:48:07.055Z,95
2019-04-07T03:53:37.835Z,94
2019-04-07T03:59:09.207Z,94
2019-04-07T04:04:41.415Z,95
2019-04-07T04:10:12.061Z,95
2019-04-07T04:15:43.538Z,94
2019-04-07T04:21:15.342Z,97
2019-04-07T04:26:45.976Z,97
2019-04-07T04:32:17.223Z,97
2019-04-07T04:37:51.743Z,96
2019-04-07T04:43:19.850Z,97
2019-04-07T04:48:51.350Z,96
2019-04-07T04:54:22.350Z,94
2019-04-07T04:59:54.003Z,93
2019-04-07T05:05:25.557Z,93
2019-04-07T05:10:57.595Z,90
2019-04-07T05:16:29.317Z,92
2019-04-07T05:22:01.408Z,91
2019-04-07T05:27:33.702Z,93
2019-04-07T05:33:06.303Z,93
2019-04-07T05:38:36.721Z,93
2019-04-07T05:44:08.013Z,95
2019-04-07T05:49:39.318Z,97
2019-04-07T05:55:10.884Z,95
2019-04-07T06:00:45.716Z,93
2019-04-07T06:06:13.553Z,92
2019-04-07T06:11:45.422Z,91
2019-04-07T06:17:16.282Z,92
2019-04-07T06:22:52.616Z,91
2019-04-07T06:28:20.705Z,91
2019-04-07T06:33:54.872Z,93
2019-04-07T06:39:24.495Z,95
2019-04-07T06:44:56.321Z,94
2019-04-07T06:50:27.925Z,93
2019-04-07T06:56:02.204Z,92
2019-04-07T07:01:30.652Z,92
2019-04-07T07:07:02.310Z,91
2019-04-07T07:12:38.670Z,90
2019-04-07T07:18:05.624Z,89
2019-04-07T07:23:37.618Z,89
2019-04-07T07:29:13.184Z,90
2019-04-07T07:34:43.296Z,90
2019-04-07T07:40:15.820Z,89
2019-04-07T07:45:48.071Z,88
2019-04-07T07:51:18.612Z,89
2019-04-07T07:56:52.245Z,88
2019-04-07T08:02:24.159Z,88
2019-04-07T08:07:56.847Z,88
2019-04-07T08:13:29.998Z,88
2019-04-07T08:19:02.843Z,87
2019-04-07T08:24:36.157Z,86
2019-04-07T08:30:11.712Z,86
2019-04-07T08:35:40.760Z,86
2019-04-07T08:41:15.408Z,88
2019-04-07T08:46:45.797Z,88
2019-04-07T08:52:18.579Z,87
2019-04-07T08:57:51.638Z,89
2019-04-07T09:03:24.196Z,89
2019-04-07T09:08:56.414Z,89
2019-04-07T09:14:28.558Z,87
2019-04-07T09:20:05.449Z,87
2019-04-07T09:25:35.763Z,87
2019-04-07T09:31:07.465Z,86
2019-04-07T09:36:40.716Z,86
2019-04-07T09:42:13.737Z,86
2019-04-07T09:47:47.110Z,86
2019-04-07T09:53:19.682Z,87
2019-04-07T09:58:52.214Z,88
2019-04-07T10:04:25.521Z,88
2019-04-07T10:10:05.927Z,87
2019-04-07T10:15:30.035Z,87
2019-04-07T10:21:03.208Z,87
2019-04-07T10:26:36.188Z,87
2019-04-07T10:32:08.904Z,87
2019-04-07T10:37:41.512Z,89
2019-04-07T10:43:13.778Z,88
2019-04-07T10:48:46.708Z,88
2019-04-07T10:54:19.862Z,88
2019-04-07T10:59:51.777Z,88
2019-04-07T11:05:24.517Z,88
2019-04-07T11:10:57.254Z,88
2019-04-07T11:16:31.181Z,89
2019-04-07T11:22:02.781Z,89
2019-04-07T11:27:35.461Z,88
2019-04-07T11:33:08.144Z,88
2019-04-07T11:38:40.979Z,87
2019-04-07T11:44:13.833Z,87
2019-04-07T11:49:46.559Z,87
2019-04-07T11:55:19.400Z,87
2019-04-07T12:00:52.637Z,87
2019-04-07T12:06:25.478Z,86
2019-04-07T12:11:58.200Z,86
2019-04-07T12:17:30.666Z,86
2019-04-07T12:23:03.947Z,85
2019-04-07T12:28:37.560Z,85
2019-04-07T12:34:12.364Z,86
2019-04-07T12:39:42.817Z,85
2019-04-07T12:45:15.744Z,84
2019-04-07T12:50:54.043Z,85
2019-04-07T12:56:31.461Z,86
2019-04-07T13:02:01.594Z,86
2019-04-07T13:07:32.502Z,87
2019-04-07T13:13:05.079Z,86
2019-04-07T13:18:39.190Z,87
2019-04-07T13:24:12.870Z,86
2019-04-07T13:29:44.419Z,85
2019-04-07T13:35:16.487Z,85
2019-04-07T13:40:50.005Z,86
2019-04-07T13:46:28.581Z,84
2019-04-07T13:57:29.475Z,84
2019-04-07T14:03:01.902Z,85
2019-04-07T14:08:35.040Z,84
2019-04-07T14:14:09.630Z,84
2019-04-07T14:19:41.249Z,85
2019-04-07T14:25:14.513Z,85
2019-04-07T14:30:48.864Z,85
2019-04-07T14:36:20.722Z,85
2019-04-07T14:42:02.504Z,84
2019-04-07T14:47:27.190Z,85
2019-04-07T14:53:00.742Z,85
2019-04-07T14:58:32.451Z,85
2019-04-07T15:04:05.129Z,85
2019-04-07T15:09:38.168Z,85
2019-04-07T15:15:11.808Z,84
2019-04-07T15:20:43.483Z,84
2019-04-07T15:26:16.910Z,84
2019-04-07T15:31:50.607Z,86
2019-04-07T15:37:23.823Z,85
2019-04-07T15:42:54.465Z,84
2019-04-07T15:48:27.316Z,85
2019-04-07T15:54:00.702Z,84
2019-04-07T15:59:33.053Z,84
2019-04-07T16:05:06.191Z,84
2019-04-07T16:10:39.079Z,86
2019-04-07T16:16:11.311Z,84
2019-04-07T16:21:44.039Z,83
2019-04-07T16:27:15.582Z,83
2019-04-07T16:32:48.372Z,84
2019-04-07T16:38:21.260Z,83
2019-04-07T16:43:53.502Z,83
2019-04-07T16:49:25.792Z,84
2019-04-07T16:54:58.582Z,83
2019-04-07T17:00:31.199Z,84
2019-04-07T17:06:03.487Z,84
2019-04-07T17:11:38.748Z,84
2019-04-07T17:17:08.429Z,84
2019-04-07T17:22:43.458Z,84
2019-04-07T17:28:14.105Z,84
2019-04-07T17:33:45.681Z,85
2019-04-07T17:39:16.736Z,84
2019-04-07T17:44:50.039Z,84
2019-04-07T17:50:20.085Z,86
2019-04-07T17:55:51.611Z,86
2019-04-07T18:01:24.758Z,85
2019-04-07T18:06:55.029Z,86
2019-04-07T18:12:26.992Z,86
2019-04-07T18:17:58.761Z,86
2019-04-07T18:23:29.993Z,87
2019-04-07T18:29:01.822Z,88
2019-04-07T18:34:33.592Z,89
2019-04-07T18:40:04.704Z,89
2019-04-07T18:45:36.324Z,90
2019-04-07T18:51:08.083Z,90
2019-04-07T18:56:40.436Z,90
2019-04-07T19:02:13.041Z,90
2019-04-07T19:07:45.815Z,90
2019-04-07T19:13:17.335Z,91
2019-04-07T19:18:45.309Z,91
2019-04-07T19:24:16.801Z,90
2019-04-07T19:29:49.879Z,90
2019-04-07T19:35:20.589Z,89
2019-04-07T19:40:51.435Z,89
2019-04-07T19:46:26.354Z,88
2019-04-07T19:51:54.786Z,87
2019-04-07T19:57:26.093Z,87
2019-04-07T20:02:57.594Z,87
2019-04-07T20:08:32.268Z,87
2019-04-07T20:14:00.783Z,88
2019-04-07T20:19:37.170Z,91
2019-04-07T20:25:08.594Z,91
2019-04-07T20:30:35.580Z,91
2019-04-07T20:36:06.720Z,93
2019-04-07T20:41:38.171Z,93
2019-04-07T20:47:09.629Z,93
2019-04-07T20:52:41.001Z,92
2019-04-07T20:58:18.592Z,94
2019-04-07T21:03:46.944Z,92
2019-04-07T21:09:15.377Z,92
2019-04-07T21:14:47.282Z,92
2019-04-07T21:20:18.229Z,92
2019-04-07T21:25:51.970Z,92
2019-04-07T21:31:21.427Z,92
2019-04-07T21:36:52.635Z,91
2019-04-07T21:42:24.246Z,94
2019-04-07T21:47:58.521Z,96
2019-04-07T21:53:29.407Z,96
2019-04-07T21:58:59.092Z,95
2019-04-07T22:04:30.103Z,94
2019-04-07T22:10:01.129Z,93
2019-04-07T22:15:42.740Z,92
2019-04-07T22:21:03.821Z,91
2019-04-07T22:26:35.238Z,91
2019-04-07T22:32:07.451Z,92
2019-04-07T22:37:38.082Z,91
2019-04-07T22:43:09.451Z,91
2019-04-07T22:48:41.542Z,91
2019-04-07T22:54:12.297Z,90
2019-04-07T22:59:43.642Z,93
2019-04-07T23:05:15.054Z,93
2019-04-07T23:10:46.468Z,93
2019-04-07T23:16:18.835Z,92
2019-04-07T23:21:49.262Z,91
2019-04-07T23:27:20.681Z,91
2019-04-07T23:32:52.148Z,90
2019-04-07T23:38:23.952Z,91
2019-04-07T23:43:54.944Z,91
2019-04-07T23:49:26.346Z,91
2019-04-07T23:54:58.696Z,93
